Central

28 Stations

Daily Data | America/Los_Angeles
as of 8/5/21 12:19 AM PDT
Station Date Daily Max Temp (°F) Time of Max Temp Daily Min Temp (°F) Time of Min Temp Dew Pt (°F) Max RH (%) Min RH (%) Wind Spd (mph) Daily Max Wind (mph) Time of Max Wind Max Wind Dir (°) Daily Rain (In) Seasonal Rainfall (In) Daily ETo (in) Daily Solar Rad (Cal/cm2) Powdery Mildew Stress (pts)
Healdsburg-South (Sodini) 8/3/21 93.3   6.4 1632 51.0   1.8 0101 52.4   3.2 94   1 24   3 3.2 13.5   0.0 1926 SE | 131 0.00 0.00 - - 20   10
Windsor-NW (Ranch 8) 8/3/21 93.6   6.8 1624 53.0   0.8 0544 53.4   2.0 88   2 30   2 1.2 12.9   1.9 1613 SSE | 151 0.00 0.00 0.210   0.025 643   58 20   10
Windsor-East (Ranch 16) 8/3/21 89.2   6.3 1648 53.9   2.9 0101 52.3   2.0 93   1 21   9 3.3 12.8   1.3 2016 SSE | 163 0.00 0.00 0.222   0.041 655   111 50   10
Mark West-North (Ranch 14) 8/3/21 89.3   6.5 1554 54.5   3.5 0419 52.7   2.7 93   0 27   2 2.3 10.5   0.7 1850 SSW | 200 0.00 0.00 0.207   0.035 642   104 60   0
Windsor-SE (Silk Rd) 8/3/21 88.7   6.4 1608 53.6   4.6 0550 53.8   3.1 98   2 29   3 2.5 11.5   0.8 1832 ESE | 105 0.00 0.00 0.206   0.028 640   82 90   10
Fulton-NW (Ranch 5) 8/3/21 89.0   7.3 1620 53.9   4.5 0526 53.8   2.9 97   2 30   1 3.5 13.2   0.8 1934 SE | 135 0.00 0.00 0.216   0.033 658   105 90   10
Windsor-South (Laughlin Rd) 8/3/21 89.8   7.8 1556 53.4   1.8 0601 - - - - - - - 0.00 0.00 - - 90   10
Fulton-SE (Barnes Rd) 8/3/21 86.5   5.8 1554 53.9   1.8 0540 53.0   1.6 93   0 28   8 3.4 12.2   0.4 1619 ESE | 106 0.00 0.00 - - 90   10
Fulton-SW (Ranch 21) 8/3/21 88.3   7.7 1539 53.6   3.3 0546 53.2   2.6 96   2 29   2 3.2 13.0   0.5 1946 SSE | 155 0.00 0.00 0.211   0.028 640   86 90   10
Santa Rosa-NW (Goldfields) 8/3/21 88.6   8.0 1541 53.6   2.9 0422 53.5   2.8 98   2 29   0 4.1 13.8   0.6 1804 SE | 127 0.00 0.00 0.202   0.029 596   98 90   10
NW Santa Rosa (Piner Road) 8/3/21 86.8   7.1 1606 53.8   6.5 0611 53.8   2.5 96   2 34   2 2.2 10.7   0.7 1601 SSW | 208 0.00 0.00 - - 80   10
River Rd South (Denner Ranch) 8/3/21 85.1   5.0 1553 52.9   3.7 0707 52.9   2.9 98   3 30   1 4.8 14.9   1.1 1558 SSE | 162 0.00 0.00 - - 90   20
West Santa Rosa (Hawk's Roost) 8/3/21 87.1   7.0 1628 53.4   3.7 0710 53.4   2.8 98   1 30   1 1.9 10.4   1.1 1113 SE | 146 0.00 0.00 0.127   0.031 367   119 90   10
Guerneville Rd (Prokopakis) 8/3/21 85.3   5.8 1540 53.4   6.2 0705 54.1   3.0 99   2 30   3 - - - - 0.00 0.00 - - 100   0
Guerneville Rd West (Balletto) 8/3/21 84.7   5.8 1600 53.1   5.2 2304 54.2   2.8 97   2 37   2 2.8 10.1   4.1 1329 S | 169 0.00 0.00 - - 100   10
Guerneville Rd East (Rich Ranch) 8/3/21 89.4   7.4 1550 53.9   5.4 0647 53.5   2.7 97   3 28   3 - - - - - - - - 90   10
Occidental Rd (Sebastopol) 8/3/21 85.5   5.6 1530 51.9   4.3 2253 55.2   2.2 100   0 32   2 2.5 11.2   2.0 1819 S | 185 0.00 0.00 - - 100   10
Lower Westside Rd (Ranch 12) 8/3/21 90.1   2.9 1652 51.9   2.7 0644 53.3   3.2 100   5 28   2 2.3 10.5   0.4 1509 SE | 130 0.00 0.00 0.204   0.024 612   58 20   10
Guerneville (Laughlin Rd) 8/3/21 85.1   6.5 1507 47.4   0.2 0059 52.6   1.8 97   4 35   1 2.7 12.1   0.8 1519 SE | 138 0.00 0.00 - - 100   0
Korbel (Winery) 8/3/21 91.7   10.7 1607 52.1   1.8 0037 52.9   1.6 97   1 18   17 1.6 8.5   3.1 1525 WSW | 250 0.00 0.00 - - 30   10
Forestville (Shone Farms) 8/3/21 90.4   4.0 1708 51.8   0.1 0338 53.9   2.8 97   2 32   3 2.3 10.2   2.1 1738 ENE | 72 0.00 0.00 0.212   0.022 655   55 90   10
Forestville-NE (Ranch 30) 8/3/21 91.2   5.6 1637 50.7   1.3 0102 54.2   2.7 98   3 33   1 2.9 13.9   0.7 1800 ESE | 115 0.00 0.00 0.214   0.019 639   40 50   10
Graton-West (Dutton Ranch) 8/3/21 86.6   4.0 1546 45.2   0.7 0154 53.5   2.9 100   0 31   2 2.2 9.9   0.6 1655 S | 185 0.00 0.00 - - 90   10
Graton-South (Mill Station Rd) 8/3/21 78.1   2.2 1541 52.0   3.6 0430 53.8   2.7 99   3 46   10 2.8 13.3   1.6 1610 S | 171 0.00 0.01 - - 40   10
Occidental (Horseshoe Bend) 8/3/21 78.6   0.2 1533 50.8   0.6 0629 53.5   2.3 100   0 44   11 - - - - - - - - 20   10
Sexton Valley (Jacqueline's Blk) 8/3/21 77.8   1.6 1452 52.8   3.3 0523 54.3   2.1 97   0 49   10 1.6 11.5   0.2 1819 SSE | 167 0.00 0.02 - - 100   20
Sebastopol Hills (Burnside Rd) 8/3/21 75.6   2.7 1551 51.3   1.9 0645 54.1   1.8 100   0 52   7 4.4 17.6   1.8 1829 SW | 224 0.00 0.03 - - 0   0
Seaview/Fort Ross (Hirsch) 8/3/21 87.1   16.6 1631 60.2   10.3 0542 47.5   3.7 73   24 14   40 2.2 7.4   1.6 1450 WNW | 293 0.00 0.00 0.229   0.066 721   87 60   10
Max   93.6 - 60.2 - 55.2 100 52 4.8 17.6 - - 0.00 - 0.229 721 -
Avg   - - - - 53.3 - - 2.7 - - - - - - - -
Min   75.6 - 45.2 - 47.5 73 14 1.2 7.4 - - 0.00 - 0.127 367 -